sensor_id;sensor_type;location;lat;lon;timestamp;P1;durP1;ratioP1;P2;durP2;ratioP2
34234;SDS011;20500;49.856;20.290;2023-03-19T00:00:25;28.30;;;15.70;;
34234;SDS011;20500;49.856;20.290;2023-03-19T00:03:31;29.50;;;17.10;;
34234;SDS011;20500;49.856;20.290;2023-03-19T00:06:37;29.10;;;16.00;;
34234;SDS011;20500;49.856;20.290;2023-03-19T00:09:43;25.10;;;14.80;;
34234;SDS011;20500;49.856;20.290;2023-03-19T00:15:54;25.20;;;14.60;;
34234;SDS011;20500;49.856;20.290;2023-03-19T00:19:00;28.00;;;15.60;;
34234;SDS011;20500;49.856;20.290;2023-03-19T00:25:11;34.20;;;19.30;;
34234;SDS011;20500;49.856;20.290;2023-03-19T00:28:17;40.40;;;22.00;;
34234;SDS011;20500;49.856;20.290;2023-03-19T00:31:23;37.40;;;21.70;;
34234;SDS011;20500;49.856;20.290;2023-03-19T00:34:31;30.10;;;15.70;;
34234;SDS011;20500;49.856;20.290;2023-03-19T00:37:36;46.70;;;28.50;;
34234;SDS011;20500;49.856;20.290;2023-03-19T00:40:43;48.00;;;26.60;;
34234;SDS011;20500;49.856;20.290;2023-03-19T00:43:52;40.60;;;24.70;;
34234;SDS011;20500;49.856;20.290;2023-03-19T00:46:59;38.90;;;23.50;;
34234;SDS011;20500;49.856;20.290;2023-03-19T00:50:05;36.90;;;22.20;;
34234;SDS011;20500;49.856;20.290;2023-03-19T00:53:12;42.30;;;25.60;;
34234;SDS011;20500;49.856;20.290;2023-03-19T00:56:19;42.40;;;24.70;;
34234;SDS011;20500;49.856;20.290;2023-03-19T00:59:25;41.20;;;23.60;;
34234;SDS011;20500;49.856;20.290;2023-03-19T01:02:31;41.70;;;24.30;;
34234;SDS011;20500;49.856;20.290;2023-03-19T01:08:41;36.50;;;22.00;;
34234;SDS011;20500;49.856;20.290;2023-03-19T01:11:47;36.00;;;20.40;;
34234;SDS011;20500;49.856;20.290;2023-03-19T01:14:53;30.90;;;16.70;;
34234;SDS011;20500;49.856;20.290;2023-03-19T01:17:58;28.20;;;16.10;;
34234;SDS011;20500;49.856;20.290;2023-03-19T01:21:05;24.80;;;13.60;;
34234;SDS011;20500;49.856;20.290;2023-03-19T01:24:12;25.50;;;13.60;;
34234;SDS011;20500;49.856;20.290;2023-03-19T01:27:18;28.30;;;15.90;;
34234;SDS011;20500;49.856;20.290;2023-03-19T01:30:24;27.30;;;16.20;;
34234;SDS011;20500;49.856;20.290;2023-03-19T01:33:30;31.60;;;17.90;;
34234;SDS011;20500;49.856;20.290;2023-03-19T01:36:36;29.60;;;17.50;;
34234;SDS011;20500;49.856;20.290;2023-03-19T01:39:42;30.30;;;16.70;;
34234;SDS011;20500;49.856;20.290;2023-03-19T01:42:52;23.90;;;13.10;;
34234;SDS011;20500;49.856;20.290;2023-03-19T01:46:00;27.70;;;14.90;;
34234;SDS011;20500;49.856;20.290;2023-03-19T01:49:10;24.70;;;14.00;;
34234;SDS011;20500;49.856;20.290;2023-03-19T01:52:17;27.20;;;14.20;;
34234;SDS011;20500;49.856;20.290;2023-03-19T01:55:24;24.50;;;14.20;;
34234;SDS011;20500;49.856;20.290;2023-03-19T01:58:30;28.80;;;14.40;;
34234;SDS011;20500;49.856;20.290;2023-03-19T02:01:36;25.10;;;14.10;;
34234;SDS011;20500;49.856;20.290;2023-03-19T02:04:47;25.80;;;13.40;;
34234;SDS011;20500;49.856;20.290;2023-03-19T02:07:58;25.10;;;13.30;;
34234;SDS011;20500;49.856;20.290;2023-03-19T02:11:07;25.30;;;14.00;;
34234;SDS011;20500;49.856;20.290;2023-03-19T02:17:18;29.10;;;15.50;;
34234;SDS011;20500;49.856;20.290;2023-03-19T02:20:25;26.10;;;15.10;;
34234;SDS011;20500;49.856;20.290;2023-03-19T02:23:36;30.80;;;16.00;;
34234;SDS011;20500;49.856;20.290;2023-03-19T02:26:48;28.60;;;16.10;;
34234;SDS011;20500;49.856;20.290;2023-03-19T02:29:55;142.20;;;57.30;;
34234;SDS011;20500;49.856;20.290;2023-03-19T02:33:04;86.90;;;38.00;;
34234;SDS011;20500;49.856;20.290;2023-03-19T02:36:12;32.70;;;17.30;;
34234;SDS011;20500;49.856;20.290;2023-03-19T02:39:21;37.90;;;19.00;;
34234;SDS011;20500;49.856;20.290;2023-03-19T02:42:32;31.60;;;15.50;;
34234;SDS011;20500;49.856;20.290;2023-03-19T02:45:38;25.70;;;14.10;;
34234;SDS011;20500;49.856;20.290;2023-03-19T02:48:44;24.10;;;14.00;;
34234;SDS011;20500;49.856;20.290;2023-03-19T02:51:50;42.30;;;21.90;;
34234;SDS011;20500;49.856;20.290;2023-03-19T02:54:56;50.70;;;25.90;;
34234;SDS011;20500;49.856;20.290;2023-03-19T02:58:02;60.80;;;30.10;;
34234;SDS011;20500;49.856;20.290;2023-03-19T03:01:07;40.50;;;21.80;;
34234;SDS011;20500;49.856;20.290;2023-03-19T03:04:13;36.20;;;19.40;;
34234;SDS011;20500;49.856;20.290;2023-03-19T03:07:19;33.90;;;19.00;;
34234;SDS011;20500;49.856;20.290;2023-03-19T03:10:25;29.50;;;15.80;;
34234;SDS011;20500;49.856;20.290;2023-03-19T03:13:32;25.60;;;15.50;;
34234;SDS011;20500;49.856;20.290;2023-03-19T03:16:39;27.70;;;14.60;;
34234;SDS011;20500;49.856;20.290;2023-03-19T03:22:49;30.00;;;15.90;;
34234;SDS011;20500;49.856;20.290;2023-03-19T03:25:55;29.20;;;16.30;;
34234;SDS011;20500;49.856;20.290;2023-03-19T03:29:01;27.40;;;13.80;;
34234;SDS011;20500;49.856;20.290;2023-03-19T03:32:07;29.50;;;14.30;;
34234;SDS011;20500;49.856;20.290;2023-03-19T03:38:23;16.30;;;7.60;;
34234;SDS011;20500;49.856;20.290;2023-03-19T03:41:29;14.30;;;7.40;;
34234;SDS011;20500;49.856;20.290;2023-03-19T03:44:35;17.30;;;8.50;;
34234;SDS011;20500;49.856;20.290;2023-03-19T03:47:41;17.90;;;9.10;;
34234;SDS011;20500;49.856;20.290;2023-03-19T03:53:52;23.90;;;12.70;;
34234;SDS011;20500;49.856;20.290;2023-03-19T03:56:58;23.30;;;13.50;;
34234;SDS011;20500;49.856;20.290;2023-03-19T04:00:06;24.30;;;12.30;;
34234;SDS011;20500;49.856;20.290;2023-03-19T04:03:14;23.50;;;12.90;;
34234;SDS011;20500;49.856;20.290;2023-03-19T04:06:21;30.50;;;15.90;;
34234;SDS011;20500;49.856;20.290;2023-03-19T04:09:30;25.60;;;11.90;;
34234;SDS011;20500;49.856;20.290;2023-03-19T04:12:36;16.20;;;8.90;;
34234;SDS011;20500;49.856;20.290;2023-03-19T04:15:43;22.70;;;11.80;;
34234;SDS011;20500;49.856;20.290;2023-03-19T04:21:53;22.80;;;12.00;;
34234;SDS011;20500;49.856;20.290;2023-03-19T04:24:59;21.10;;;11.00;;
34234;SDS011;20500;49.856;20.290;2023-03-19T04:28:06;21.20;;;11.20;;
34234;SDS011;20500;49.856;20.290;2023-03-19T04:31:15;26.20;;;12.40;;
34234;SDS011;20500;49.856;20.290;2023-03-19T04:34:21;18.70;;;9.20;;
34234;SDS011;20500;49.856;20.290;2023-03-19T04:37:27;16.60;;;8.70;;
34234;SDS011;20500;49.856;20.290;2023-03-19T04:40:33;16.60;;;8.80;;
34234;SDS011;20500;49.856;20.290;2023-03-19T04:43:39;15.70;;;7.50;;
34234;SDS011;20500;49.856;20.290;2023-03-19T04:46:45;14.90;;;7.00;;
34234;SDS011;20500;49.856;20.290;2023-03-19T04:49:51;17.90;;;8.70;;
34234;SDS011;20500;49.856;20.290;2023-03-19T04:52:57;21.20;;;10.60;;
34234;SDS011;20500;49.856;20.290;2023-03-19T04:56:03;18.90;;;9.20;;
34234;SDS011;20500;49.856;20.290;2023-03-19T04:59:10;22.10;;;10.50;;
34234;SDS011;20500;49.856;20.290;2023-03-19T05:02:16;21.10;;;10.40;;
34234;SDS011;20500;49.856;20.290;2023-03-19T05:05:22;20.30;;;10.80;;
34234;SDS011;20500;49.856;20.290;2023-03-19T05:08:28;23.40;;;11.80;;
34234;SDS011;20500;49.856;20.290;2023-03-19T05:11:34;21.70;;;11.70;;
34234;SDS011;20500;49.856;20.290;2023-03-19T05:17:45;20.40;;;10.70;;
34234;SDS011;20500;49.856;20.290;2023-03-19T05:23:56;24.00;;;11.90;;
34234;SDS011;20500;49.856;20.290;2023-03-19T05:27:02;22.70;;;11.90;;
34234;SDS011;20500;49.856;20.290;2023-03-19T05:30:10;22.10;;;11.80;;
34234;SDS011;20500;49.856;20.290;2023-03-19T05:33:17;22.50;;;12.90;;
34234;SDS011;20500;49.856;20.290;2023-03-19T05:36:24;21.40;;;11.30;;
34234;SDS011;20500;49.856;20.290;2023-03-19T05:39:31;26.20;;;11.90;;
34234;SDS011;20500;49.856;20.290;2023-03-19T05:42:37;20.90;;;11.20;;
34234;SDS011;20500;49.856;20.290;2023-03-19T05:45:42;20.30;;;11.70;;
34234;SDS011;20500;49.856;20.290;2023-03-19T05:48:53;21.80;;;12.10;;
34234;SDS011;20500;49.856;20.290;2023-03-19T05:51:59;21.10;;;11.80;;
34234;SDS011;20500;49.856;20.290;2023-03-19T05:55:05;23.90;;;12.00;;
34234;SDS011;20500;49.856;20.290;2023-03-19T05:58:12;23.10;;;11.60;;
34234;SDS011;20500;49.856;20.290;2023-03-19T06:01:18;21.80;;;11.10;;
34234;SDS011;20500;49.856;20.290;2023-03-19T06:04:25;21.30;;;11.70;;
34234;SDS011;20500;49.856;20.290;2023-03-19T06:07:30;20.50;;;11.30;;
34234;SDS011;20500;49.856;20.290;2023-03-19T06:10:36;22.20;;;11.60;;
34234;SDS011;20500;49.856;20.290;2023-03-19T06:13:42;21.50;;;11.50;;
34234;SDS011;20500;49.856;20.290;2023-03-19T06:16:49;23.40;;;11.60;;
34234;SDS011;20500;49.856;20.290;2023-03-19T06:19:55;21.70;;;11.80;;
34234;SDS011;20500;49.856;20.290;2023-03-19T06:23:00;22.60;;;11.90;;
34234;SDS011;20500;49.856;20.290;2023-03-19T06:26:06;22.90;;;11.70;;
34234;SDS011;20500;49.856;20.290;2023-03-19T06:29:12;24.70;;;12.40;;
34234;SDS011;20500;49.856;20.290;2023-03-19T06:32:18;20.60;;;11.50;;
34234;SDS011;20500;49.856;20.290;2023-03-19T06:35:24;20.90;;;11.40;;
34234;SDS011;20500;49.856;20.290;2023-03-19T06:41:35;21.20;;;10.70;;
34234;SDS011;20500;49.856;20.290;2023-03-19T06:44:40;19.90;;;11.30;;
34234;SDS011;20500;49.856;20.290;2023-03-19T06:47:46;19.50;;;10.30;;
34234;SDS011;20500;49.856;20.290;2023-03-19T06:50:55;18.90;;;10.80;;
34234;SDS011;20500;49.856;20.290;2023-03-19T06:54:01;18.20;;;9.90;;
34234;SDS011;20500;49.856;20.290;2023-03-19T07:00:13;17.60;;;9.40;;
34234;SDS011;20500;49.856;20.290;2023-03-19T07:03:20;17.90;;;9.20;;
34234;SDS011;20500;49.856;20.290;2023-03-19T07:06:26;15.70;;;8.20;;
34234;SDS011;20500;49.856;20.290;2023-03-19T07:09:32;15.90;;;8.90;;
34234;SDS011;20500;49.856;20.290;2023-03-19T07:12:38;20.50;;;10.10;;
34234;SDS011;20500;49.856;20.290;2023-03-19T07:15:44;15.90;;;8.60;;
34234;SDS011;20500;49.856;20.290;2023-03-19T07:18:50;17.10;;;9.60;;
34234;SDS011;20500;49.856;20.290;2023-03-19T07:21:56;19.00;;;10.60;;
34234;SDS011;20500;49.856;20.290;2023-03-19T07:25:01;17.50;;;8.90;;
34234;SDS011;20500;49.856;20.290;2023-03-19T07:28:08;17.10;;;8.90;;
34234;SDS011;20500;49.856;20.290;2023-03-19T07:31:14;16.20;;;9.20;;
34234;SDS011;20500;49.856;20.290;2023-03-19T07:37:24;15.70;;;8.40;;
34234;SDS011;20500;49.856;20.290;2023-03-19T07:40:30;16.60;;;9.10;;
34234;SDS011;20500;49.856;20.290;2023-03-19T07:46:41;16.80;;;8.90;;
34234;SDS011;20500;49.856;20.290;2023-03-19T07:49:47;16.50;;;8.30;;
34234;SDS011;20500;49.856;20.290;2023-03-19T07:52:53;15.50;;;8.60;;
34234;SDS011;20500;49.856;20.290;2023-03-19T07:55:59;16.40;;;8.90;;
34234;SDS011;20500;49.856;20.290;2023-03-19T07:59:05;14.60;;;8.00;;
34234;SDS011;20500;49.856;20.290;2023-03-19T08:02:11;14.80;;;8.20;;
34234;SDS011;20500;49.856;20.290;2023-03-19T08:05:18;14.60;;;7.80;;
34234;SDS011;20500;49.856;20.290;2023-03-19T08:08:24;15.40;;;8.00;;
34234;SDS011;20500;49.856;20.290;2023-03-19T08:11:30;14.20;;;7.70;;
34234;SDS011;20500;49.856;20.290;2023-03-19T08:14:35;14.50;;;7.10;;
34234;SDS011;20500;49.856;20.290;2023-03-19T08:17:41;18.80;;;10.10;;
34234;SDS011;20500;49.856;20.290;2023-03-19T08:20:47;12.60;;;6.60;;
34234;SDS011;20500;49.856;20.290;2023-03-19T08:23:53;12.20;;;5.70;;
34234;SDS011;20500;49.856;20.290;2023-03-19T08:26:59;15.00;;;7.20;;
34234;SDS011;20500;49.856;20.290;2023-03-19T08:30:06;14.70;;;7.10;;
34234;SDS011;20500;49.856;20.290;2023-03-19T08:33:14;22.00;;;13.10;;
34234;SDS011;20500;49.856;20.290;2023-03-19T08:39:24;18.60;;;8.50;;
34234;SDS011;20500;49.856;20.290;2023-03-19T08:42:31;36.20;;;16.50;;
34234;SDS011;20500;49.856;20.290;2023-03-19T08:48:41;19.50;;;9.30;;
34234;SDS011;20500;49.856;20.290;2023-03-19T08:51:48;13.30;;;6.10;;
34234;SDS011;20500;49.856;20.290;2023-03-19T08:54:54;30.10;;;17.30;;
34234;SDS011;20500;49.856;20.290;2023-03-19T08:58:00;13.20;;;6.80;;
34234;SDS011;20500;49.856;20.290;2023-03-19T09:04:12;14.20;;;7.00;;
34234;SDS011;20500;49.856;20.290;2023-03-19T09:07:18;17.10;;;8.10;;
34234;SDS011;20500;49.856;20.290;2023-03-19T09:10:24;15.80;;;8.20;;
34234;SDS011;20500;49.856;20.290;2023-03-19T09:13:30;12.90;;;6.20;;
34234;SDS011;20500;49.856;20.290;2023-03-19T09:19:41;11.90;;;4.70;;
34234;SDS011;20500;49.856;20.290;2023-03-19T09:22:47;11.40;;;5.10;;
34234;SDS011;20500;49.856;20.290;2023-03-19T09:25:52;12.50;;;4.40;;
34234;SDS011;20500;49.856;20.290;2023-03-19T09:28:59;10.30;;;4.30;;
34234;SDS011;20500;49.856;20.290;2023-03-19T09:35:10;11.10;;;4.90;;
34234;SDS011;20500;49.856;20.290;2023-03-19T09:41:23;12.20;;;4.70;;
34234;SDS011;20500;49.856;20.290;2023-03-19T09:44:36;12.10;;;4.80;;
34234;SDS011;20500;49.856;20.290;2023-03-19T09:47:46;9.90;;;4.50;;
34234;SDS011;20500;49.856;20.290;2023-03-19T09:50:56;12.00;;;5.10;;
34234;SDS011;20500;49.856;20.290;2023-03-19T09:54:07;10.60;;;4.50;;
34234;SDS011;20500;49.856;20.290;2023-03-19T09:57:25;11.40;;;4.80;;
34234;SDS011;20500;49.856;20.290;2023-03-19T10:03:42;10.30;;;4.60;;
34234;SDS011;20500;49.856;20.290;2023-03-19T10:06:57;12.40;;;4.70;;
34234;SDS011;20500;49.856;20.290;2023-03-19T10:10:23;12.10;;;4.70;;
34234;SDS011;20500;49.856;20.290;2023-03-19T10:13:54;11.10;;;4.50;;
34234;SDS011;20500;49.856;20.290;2023-03-19T10:17:09;10.60;;;4.20;;
34234;SDS011;20500;49.856;20.290;2023-03-19T10:20:24;10.40;;;4.40;;
34234;SDS011;20500;49.856;20.290;2023-03-19T10:23:40;11.50;;;4.90;;
34234;SDS011;20500;49.856;20.290;2023-03-19T10:26:48;10.40;;;4.80;;
34234;SDS011;20500;49.856;20.290;2023-03-19T10:29:59;10.00;;;4.50;;
34234;SDS011;20500;49.856;20.290;2023-03-19T10:33:11;10.80;;;4.70;;
34234;SDS011;20500;49.856;20.290;2023-03-19T10:36:26;12.00;;;4.90;;
34234;SDS011;20500;49.856;20.290;2023-03-19T10:39:36;11.40;;;4.80;;
34234;SDS011;20500;49.856;20.290;2023-03-19T10:42:45;10.00;;;4.80;;
34234;SDS011;20500;49.856;20.290;2023-03-19T10:46:05;10.90;;;4.60;;
34234;SDS011;20500;49.856;20.290;2023-03-19T10:49:17;11.40;;;4.70;;
34234;SDS011;20500;49.856;20.290;2023-03-19T10:52:23;11.40;;;5.70;;
34234;SDS011;20500;49.856;20.290;2023-03-19T10:55:33;22.10;;;12.80;;
34234;SDS011;20500;49.856;20.290;2023-03-19T10:58:39;18.80;;;11.30;;
34234;SDS011;20500;49.856;20.290;2023-03-19T11:02:00;14.60;;;7.80;;
34234;SDS011;20500;49.856;20.290;2023-03-19T11:05:25;11.30;;;5.60;;
34234;SDS011;20500;49.856;20.290;2023-03-19T11:08:34;11.10;;;5.00;;
34234;SDS011;20500;49.856;20.290;2023-03-19T11:11:43;11.20;;;5.20;;
34234;SDS011;20500;49.856;20.290;2023-03-19T11:14:53;10.50;;;4.50;;
34234;SDS011;20500;49.856;20.290;2023-03-19T11:18:04;11.80;;;4.70;;
34234;SDS011;20500;49.856;20.290;2023-03-19T11:21:22;11.20;;;5.10;;
34234;SDS011;20500;49.856;20.290;2023-03-19T11:24:32;11.10;;;4.80;;
34234;SDS011;20500;49.856;20.290;2023-03-19T11:27:42;11.00;;;5.00;;
34234;SDS011;20500;49.856;20.290;2023-03-19T11:30:51;10.40;;;4.50;;
34234;SDS011;20500;49.856;20.290;2023-03-19T11:34:16;11.40;;;4.80;;
34234;SDS011;20500;49.856;20.290;2023-03-19T11:37:37;10.20;;;4.40;;
34234;SDS011;20500;49.856;20.290;2023-03-19T11:40:54;10.70;;;4.80;;
34234;SDS011;20500;49.856;20.290;2023-03-19T11:44:09;9.50;;;3.80;;
34234;SDS011;20500;49.856;20.290;2023-03-19T11:47:24;10.90;;;4.50;;
34234;SDS011;20500;49.856;20.290;2023-03-19T11:50:39;11.60;;;4.90;;
34234;SDS011;20500;49.856;20.290;2023-03-19T11:53:55;10.10;;;4.50;;
34234;SDS011;20500;49.856;20.290;2023-03-19T11:57:09;10.50;;;4.60;;
34234;SDS011;20500;49.856;20.290;2023-03-19T12:00:23;10.80;;;5.20;;
34234;SDS011;20500;49.856;20.290;2023-03-19T12:07:19;10.10;;;4.70;;
34234;SDS011;20500;49.856;20.290;2023-03-19T12:10:37;11.80;;;5.00;;
34234;SDS011;20500;49.856;20.290;2023-03-19T12:14:10;10.40;;;5.00;;
34234;SDS011;20500;49.856;20.290;2023-03-19T12:17:32;10.80;;;4.60;;
34234;SDS011;20500;49.856;20.290;2023-03-19T12:20:51;10.10;;;4.50;;
34234;SDS011;20500;49.856;20.290;2023-03-19T12:24:09;11.00;;;4.40;;
34234;SDS011;20500;49.856;20.290;2023-03-19T12:27:27;11.10;;;5.10;;
34234;SDS011;20500;49.856;20.290;2023-03-19T12:30:43;11.20;;;4.90;;
34234;SDS011;20500;49.856;20.290;2023-03-19T12:33:55;10.00;;;4.70;;
34234;SDS011;20500;49.856;20.290;2023-03-19T12:37:14;10.70;;;4.50;;
34234;SDS011;20500;49.856;20.290;2023-03-19T12:40:26;11.00;;;5.20;;
34234;SDS011;20500;49.856;20.290;2023-03-19T12:43:40;10.70;;;4.60;;
34234;SDS011;20500;49.856;20.290;2023-03-19T12:46:54;11.60;;;4.70;;
34234;SDS011;20500;49.856;20.290;2023-03-19T12:50:07;10.30;;;4.50;;
34234;SDS011;20500;49.856;20.290;2023-03-19T12:53:20;10.80;;;4.40;;
34234;SDS011;20500;49.856;20.290;2023-03-19T12:56:36;10.80;;;5.30;;
34234;SDS011;20500;49.856;20.290;2023-03-19T12:59:47;11.40;;;5.10;;
34234;SDS011;20500;49.856;20.290;2023-03-19T13:02:59;10.80;;;4.60;;
34234;SDS011;20500;49.856;20.290;2023-03-19T13:06:11;11.50;;;4.90;;
34234;SDS011;20500;49.856;20.290;2023-03-19T13:09:26;12.10;;;5.30;;
34234;SDS011;20500;49.856;20.290;2023-03-19T13:12:35;11.60;;;5.10;;
34234;SDS011;20500;49.856;20.290;2023-03-19T13:15:42;11.10;;;4.80;;
34234;SDS011;20500;49.856;20.290;2023-03-19T13:18:53;11.30;;;4.70;;
34234;SDS011;20500;49.856;20.290;2023-03-19T13:22:12;10.70;;;4.50;;
34234;SDS011;20500;49.856;20.290;2023-03-19T13:25:23;11.20;;;5.30;;
34234;SDS011;20500;49.856;20.290;2023-03-19T13:28:36;10.40;;;4.80;;
34234;SDS011;20500;49.856;20.290;2023-03-19T13:32:00;10.10;;;4.40;;
34234;SDS011;20500;49.856;20.290;2023-03-19T13:35:10;10.50;;;4.60;;
34234;SDS011;20500;49.856;20.290;2023-03-19T13:38:24;11.10;;;4.60;;
34234;SDS011;20500;49.856;20.290;2023-03-19T13:41:52;11.70;;;4.60;;
34234;SDS011;20500;49.856;20.290;2023-03-19T13:45:28;10.70;;;4.30;;
34234;SDS011;20500;49.856;20.290;2023-03-19T13:48:38;11.80;;;4.70;;
34234;SDS011;20500;49.856;20.290;2023-03-19T13:51:55;9.80;;;4.30;;
34234;SDS011;20500;49.856;20.290;2023-03-19T13:58:46;11.60;;;4.80;;
34234;SDS011;20500;49.856;20.290;2023-03-19T14:01:55;10.80;;;4.30;;
34234;SDS011;20500;49.856;20.290;2023-03-19T14:05:02;10.20;;;4.30;;
34234;SDS011;20500;49.856;20.290;2023-03-19T14:08:16;9.80;;;4.20;;
34234;SDS011;20500;49.856;20.290;2023-03-19T14:11:27;11.70;;;4.50;;
34234;SDS011;20500;49.856;20.290;2023-03-19T14:14:38;11.10;;;4.80;;
34234;SDS011;20500;49.856;20.290;2023-03-19T14:17:52;10.20;;;4.50;;
34234;SDS011;20500;49.856;20.290;2023-03-19T14:21:04;10.40;;;4.40;;
34234;SDS011;20500;49.856;20.290;2023-03-19T14:24:26;10.70;;;4.50;;
34234;SDS011;20500;49.856;20.290;2023-03-19T14:27:58;9.80;;;4.40;;
34234;SDS011;20500;49.856;20.290;2023-03-19T14:31:14;10.00;;;3.90;;
34234;SDS011;20500;49.856;20.290;2023-03-19T14:34:25;11.20;;;4.20;;
34234;SDS011;20500;49.856;20.290;2023-03-19T14:37:40;10.30;;;4.60;;
34234;SDS011;20500;49.856;20.290;2023-03-19T14:40:51;12.10;;;5.00;;
34234;SDS011;20500;49.856;20.290;2023-03-19T14:44:04;10.20;;;4.40;;
34234;SDS011;20500;49.856;20.290;2023-03-19T14:47:28;11.40;;;4.50;;
34234;SDS011;20500;49.856;20.290;2023-03-19T14:50:54;12.60;;;5.70;;
34234;SDS011;20500;49.856;20.290;2023-03-19T14:54:16;15.30;;;8.70;;
34234;SDS011;20500;49.856;20.290;2023-03-19T14:57:31;10.70;;;5.00;;
34234;SDS011;20500;49.856;20.290;2023-03-19T15:00:38;12.60;;;6.20;;
34234;SDS011;20500;49.856;20.290;2023-03-19T15:03:50;11.80;;;5.10;;
34234;SDS011;20500;49.856;20.290;2023-03-19T15:06:58;11.20;;;5.20;;
34234;SDS011;20500;49.856;20.290;2023-03-19T15:10:06;10.50;;;4.80;;
34234;SDS011;20500;49.856;20.290;2023-03-19T15:13:23;11.90;;;5.30;;
34234;SDS011;20500;49.856;20.290;2023-03-19T15:16:39;14.40;;;7.90;;
34234;SDS011;20500;49.856;20.290;2023-03-19T15:19:57;11.00;;;4.90;;
34234;SDS011;20500;49.856;20.290;2023-03-19T15:23:06;10.90;;;4.90;;
34234;SDS011;20500;49.856;20.290;2023-03-19T15:26:31;11.00;;;5.00;;
34234;SDS011;20500;49.856;20.290;2023-03-19T15:29:39;10.60;;;4.50;;
34234;SDS011;20500;49.856;20.290;2023-03-19T15:32:45;11.50;;;4.80;;
34234;SDS011;20500;49.856;20.290;2023-03-19T15:36:11;11.10;;;5.00;;
34234;SDS011;20500;49.856;20.290;2023-03-19T15:39:20;10.70;;;4.50;;
34234;SDS011;20500;49.856;20.290;2023-03-19T15:42:29;10.60;;;4.60;;
34234;SDS011;20500;49.856;20.290;2023-03-19T15:45:35;10.70;;;4.60;;
34234;SDS011;20500;49.856;20.290;2023-03-19T15:48:43;10.70;;;4.60;;
34234;SDS011;20500;49.856;20.290;2023-03-19T15:51:53;11.60;;;4.60;;
34234;SDS011;20500;49.856;20.290;2023-03-19T15:55:05;11.30;;;5.20;;
34234;SDS011;20500;49.856;20.290;2023-03-19T15:58:14;12.00;;;5.00;;
34234;SDS011;20500;49.856;20.290;2023-03-19T16:01:23;12.40;;;5.40;;
34234;SDS011;20500;49.856;20.290;2023-03-19T16:04:29;12.40;;;5.30;;
34234;SDS011;20500;49.856;20.290;2023-03-19T16:07:59;12.20;;;4.50;;
34234;SDS011;20500;49.856;20.290;2023-03-19T16:11:13;10.60;;;4.90;;
34234;SDS011;20500;49.856;20.290;2023-03-19T16:14:32;10.30;;;4.30;;
34234;SDS011;20500;49.856;20.290;2023-03-19T16:17:43;9.80;;;4.20;;
34234;SDS011;20500;49.856;20.290;2023-03-19T16:20:57;11.00;;;4.70;;
34234;SDS011;20500;49.856;20.290;2023-03-19T16:24:17;11.70;;;4.80;;
34234;SDS011;20500;49.856;20.290;2023-03-19T16:27:32;12.00;;;5.40;;
34234;SDS011;20500;49.856;20.290;2023-03-19T16:30:40;11.70;;;4.90;;
34234;SDS011;20500;49.856;20.290;2023-03-19T16:33:51;11.20;;;5.40;;
34234;SDS011;20500;49.856;20.290;2023-03-19T16:36:58;10.90;;;4.50;;
34234;SDS011;20500;49.856;20.290;2023-03-19T16:43:44;28.80;;;6.40;;
34234;SDS011;20500;49.856;20.290;2023-03-19T16:46:50;12.70;;;6.00;;
34234;SDS011;20500;49.856;20.290;2023-03-19T16:49:57;12.70;;;6.50;;
34234;SDS011;20500;49.856;20.290;2023-03-19T16:53:03;11.10;;;5.50;;
34234;SDS011;20500;49.856;20.290;2023-03-19T16:56:17;11.60;;;5.50;;
34234;SDS011;20500;49.856;20.290;2023-03-19T16:59:25;13.50;;;6.90;;
34234;SDS011;20500;49.856;20.290;2023-03-19T17:02:32;16.50;;;8.00;;
34234;SDS011;20500;49.856;20.290;2023-03-19T17:05:38;14.70;;;7.80;;
34234;SDS011;20500;49.856;20.290;2023-03-19T17:08:44;15.40;;;8.00;;
34234;SDS011;20500;49.856;20.290;2023-03-19T17:11:50;38.80;;;24.60;;
34234;SDS011;20500;49.856;20.290;2023-03-19T17:14:57;21.50;;;12.60;;
34234;SDS011;20500;49.856;20.290;2023-03-19T17:21:14;24.30;;;14.70;;
34234;SDS011;20500;49.856;20.290;2023-03-19T17:24:25;54.40;;;36.50;;
34234;SDS011;20500;49.856;20.290;2023-03-19T17:27:32;108.50;;;70.10;;
34234;SDS011;20500;49.856;20.290;2023-03-19T17:33:43;48.40;;;28.80;;
34234;SDS011;20500;49.856;20.290;2023-03-19T17:39:55;18.90;;;11.20;;
34234;SDS011;20500;49.856;20.290;2023-03-19T17:43:01;17.40;;;9.80;;
34234;SDS011;20500;49.856;20.290;2023-03-19T17:46:09;18.70;;;10.70;;
34234;SDS011;20500;49.856;20.290;2023-03-19T17:49:19;17.80;;;9.80;;
34234;SDS011;20500;49.856;20.290;2023-03-19T17:52:27;18.90;;;11.10;;
34234;SDS011;20500;49.856;20.290;2023-03-19T17:55:33;29.80;;;18.20;;
34234;SDS011;20500;49.856;20.290;2023-03-19T17:58:39;39.40;;;24.70;;
34234;SDS011;20500;49.856;20.290;2023-03-19T18:01:45;34.80;;;22.60;;
34234;SDS011;20500;49.856;20.290;2023-03-19T18:04:51;32.10;;;21.00;;
34234;SDS011;20500;49.856;20.290;2023-03-19T18:11:02;54.40;;;26.90;;
34234;SDS011;20500;49.856;20.290;2023-03-19T18:14:08;34.10;;;18.60;;
34234;SDS011;20500;49.856;20.290;2023-03-19T18:17:15;40.50;;;21.40;;
34234;SDS011;20500;49.856;20.290;2023-03-19T18:20:23;26.50;;;14.20;;
34234;SDS011;20500;49.856;20.290;2023-03-19T18:23:31;28.90;;;15.00;;
34234;SDS011;20500;49.856;20.290;2023-03-19T18:26:37;24.60;;;14.20;;
34234;SDS011;20500;49.856;20.290;2023-03-19T18:29:43;24.80;;;13.20;;
34234;SDS011;20500;49.856;20.290;2023-03-19T18:32:50;22.90;;;12.70;;
34234;SDS011;20500;49.856;20.290;2023-03-19T18:35:58;36.30;;;21.00;;
34234;SDS011;20500;49.856;20.290;2023-03-19T18:39:08;43.90;;;24.10;;
34234;SDS011;20500;49.856;20.290;2023-03-19T18:42:16;35.70;;;20.40;;
34234;SDS011;20500;49.856;20.290;2023-03-19T18:45:22;32.00;;;18.20;;
34234;SDS011;20500;49.856;20.290;2023-03-19T18:48:32;31.80;;;18.40;;
34234;SDS011;20500;49.856;20.290;2023-03-19T18:51:38;26.60;;;16.80;;
34234;SDS011;20500;49.856;20.290;2023-03-19T18:55:02;25.50;;;15.20;;
34234;SDS011;20500;49.856;20.290;2023-03-19T18:58:12;23.40;;;14.50;;
34234;SDS011;20500;49.856;20.290;2023-03-19T19:01:22;28.80;;;16.60;;
34234;SDS011;20500;49.856;20.290;2023-03-19T19:04:29;26.20;;;15.80;;
34234;SDS011;20500;49.856;20.290;2023-03-19T19:07:35;23.50;;;14.70;;
34234;SDS011;20500;49.856;20.290;2023-03-19T19:10:42;27.30;;;15.80;;
34234;SDS011;20500;49.856;20.290;2023-03-19T19:13:50;25.20;;;14.90;;
34234;SDS011;20500;49.856;20.290;2023-03-19T19:16:58;23.70;;;14.30;;
34234;SDS011;20500;49.856;20.290;2023-03-19T19:20:05;24.90;;;13.20;;
34234;SDS011;20500;49.856;20.290;2023-03-19T19:23:14;22.50;;;12.70;;
34234;SDS011;20500;49.856;20.290;2023-03-19T19:26:21;24.60;;;14.40;;
34234;SDS011;20500;49.856;20.290;2023-03-19T19:29:28;23.30;;;14.40;;
34234;SDS011;20500;49.856;20.290;2023-03-19T19:32:34;24.00;;;14.40;;
34234;SDS011;20500;49.856;20.290;2023-03-19T19:35:41;21.80;;;13.50;;
34234;SDS011;20500;49.856;20.290;2023-03-19T19:38:47;24.40;;;14.50;;
34234;SDS011;20500;49.856;20.290;2023-03-19T19:44:58;24.70;;;13.10;;
34234;SDS011;20500;49.856;20.290;2023-03-19T19:48:09;22.30;;;13.20;;
34234;SDS011;20500;49.856;20.290;2023-03-19T19:51:19;22.30;;;13.10;;